Calumet, IA (51009)

11:52 PM CDT del 28 Luglio 2015 (GMT -0500)
Iowa Weather Now.com | | Change Station
CLOSE
Current Station
Stazione meteo personale
Location: Sutherland, IA
Altitudine: 1427 ft
Stazioni meteo nelle vicinanze

Alt. 1427 ft 42.98 °N, 95.49 °W | Updated 3 seconds ago

Sereno
Sereno
65.7 °F
Sembra 65.7 °F
N
2.5
Vento Variabile Vento da OSO
Gusts 2.5 mph

Oggi
Massima -- | Minima -- °F
--% Possibilità di precip.
Ieri
Massima -- | Minima -- °F
Precip. -- in
6:08 AM 8:47 PM
Gobba a ponente, 93% visible
Pressione 30.03 in
Visibilità 10.0 miglia
Nuvole Sereno
Punto di rugiada 61 °F
Umidità 85%
Piovosità 0.72 in
Spessore del manto nevoso Non disponibile.
Raggi UV 0.0 fuori da 12
Polline 4.80 fuori da 12
Qualità dell'aria Non disponibile.
Flu Activity Non disponibile.
METAR KCKP 290435Z AUTO 00000KT 10SM CLR 17/17 A3003 RMK AO2 LTG DSNT SE T01690169

More Conditions Fewer Conditions

Pressione 30.03 in
Visibilità 10.0 miglia
Nuvole Sereno
Punto di rugiada 61 °F
Umidità 85%
Piovosità 0.72 in
Spessore del manto nevoso Non disponibile.
Raggi UV 0.0 fuori da 12
Polline 4.80 fuori da 12
Qualità dell'aria Non disponibile.
Flu Activity Non disponibile.
METAR KCKP 290435Z AUTO 00000KT 10SM CLR 17/17 A3003 RMK AO2 LTG DSNT SE T01690169

More Conditions Fewer Conditions

10-Day Weather Forecast

×

Almanac

Astronomia

Jul. 28, 2015 Alba Tramonto
Ora attuale
Crepuscolo civile
Crepuscolo nautico
Crepuscolo astronomico
Luna
Estensione della luce visibile
Lunghezza del giorno
Tomorrow will be .
, % of the Moon is Illuminated

Gli estremi di oggi

State Highs State Lows

Community

WunderPhotos

Upload Photos

1,842,045 foto caricate!

WunderBlogs® & News

Nearby

Qualità dell'aria

  Qualità dell'aria Indice AQ Inquinante
Not available.

Profondità neve

Stazione Profondità Altitudine

Attività sismica

Città  Distanza Mag. Data & Ora
Minimo Magnitudo Mostrato è 2.5.

Temperature delle acque costiere

Località Temperatura

Stations

Stazioni meteo nelle vicinanze

Ubicazione della stazione Temp. Raffreddamento del vento Punto di rugiada Umidità Vento Precip. Alt. Aggiornato Tipo